createdAt,value
2017-06-21T00:07:51.448Z,8.20
2017-06-21T00:10:25.931Z,8.10
2017-06-21T00:13:13.260Z,8.80
2017-06-21T00:18:45.394Z,8.20
2017-06-21T00:24:26.182Z,7.83
2017-06-21T00:27:11.605Z,7.37
2017-06-21T00:32:51.832Z,8.03
2017-06-21T00:35:37.312Z,8.77
2017-06-21T00:38:15.660Z,7.97
2017-06-21T00:41:03.445Z,7.77
2017-06-21T00:43:44.836Z,7.23
2017-06-21T00:46:21.652Z,7.53
2017-06-21T00:48:56.628Z,6.27
2017-06-21T00:54:38.817Z,6.93
2017-06-21T00:57:26.537Z,7.27
2017-06-21T01:00:02.020Z,7.67
2017-06-21T01:05:41.314Z,7.20
2017-06-21T01:08:22.386Z,8.53
2017-06-21T01:11:11.407Z,7.60
2017-06-21T01:13:58.700Z,6.73
2017-06-21T01:16:43.992Z,6.83
2017-06-21T01:19:19.193Z,6.33
2017-06-21T01:21:56.714Z,6.13
2017-06-21T01:24:45.459Z,6.97
2017-06-21T01:27:37.752Z,6.30
2017-06-21T01:30:23.102Z,5.87
2017-06-21T01:32:57.517Z,6.40
2017-06-21T01:38:39.185Z,6.87
2017-06-21T01:41:17.751Z,6.97
2017-06-21T01:50:08.693Z,6.90
2017-06-21T01:52:49.943Z,6.10
2017-06-21T01:55:18.322Z,7.70
2017-06-21T01:57:56.631Z,6.93
2017-06-21T02:03:41.741Z,6.27
2017-06-21T02:06:33.619Z,7.80
2017-06-21T02:09:14.701Z,6.73
2017-06-21T02:11:43.105Z,6.50
2017-06-21T02:14:11.530Z,5.80
2017-06-21T02:16:45.576Z,5.77
2017-06-21T02:28:33.479Z,6.10
2017-06-21T02:31:16.789Z,5.90
2017-06-21T02:36:56.667Z,6.00
2017-06-21T02:39:44.643Z,6.03
2017-06-21T02:45:20.489Z,6.87
2017-06-21T02:51:02.423Z,6.20
2017-06-21T02:53:44.849Z,8.00
2017-06-21T02:56:32.325Z,6.60
2017-06-21T02:59:20.034Z,5.87
2017-06-21T03:01:59.265Z,7.03
2017-06-21T03:04:46.949Z,6.20
2017-06-21T03:07:15.326Z,6.80
2017-06-21T03:10:03.197Z,6.20
2017-06-21T03:12:51.733Z,7.17
2017-06-21T03:15:37.034Z,5.50
2017-06-21T03:21:20.260Z,5.73
2017-06-21T03:23:48.583Z,5.20
2017-06-21T03:26:17.007Z,5.50
2017-06-21T03:28:45.410Z,5.93
2017-06-21T03:40:26.055Z,5.07
2017-06-21T03:43:11.518Z,5.20
2017-06-21T03:45:56.160Z,5.00
2017-06-21T03:48:32.452Z,4.90
2017-06-21T03:54:12.189Z,4.97
2017-06-21T03:56:57.662Z,5.00
2017-06-21T03:59:35.821Z,5.10
2017-06-21T04:02:23.500Z,4.53
2017-06-21T04:04:51.915Z,4.70
2017-06-21T04:07:33.080Z,5.50
2017-06-21T04:10:15.789Z,4.40
2017-06-21T04:12:44.195Z,4.83
2017-06-21T04:18:08.900Z,4.23
2017-06-21T04:20:40.829Z,5.03
2017-06-21T04:23:17.553Z,5.50
2017-06-21T04:31:49.760Z,3.83
2017-06-21T04:34:41.118Z,3.97
2017-06-21T04:40:15.802Z,4.20
2017-06-21T04:51:39.549Z,3.80
2017-06-21T04:54:28.239Z,3.50
2017-06-21T04:57:15.984Z,3.23
2017-06-21T05:02:59.507Z,3.90
2017-06-21T05:05:37.313Z,2.80
2017-06-21T05:14:04.684Z,2.90
2017-06-21T05:22:56.679Z,2.87
2017-06-21T05:25:41.638Z,2.57
2017-06-21T05:28:10.024Z,2.83
2017-06-21T05:31:00.761Z,2.63
2017-06-21T05:33:45.775Z,2.80
2017-06-21T05:36:31.382Z,2.60
2017-06-21T05:39:18.669Z,2.30
2017-06-21T05:45:14.554Z,2.50
2017-06-21T05:50:36.220Z,2.53
2017-06-21T05:53:40.888Z,2.77
2017-06-21T06:02:16.229Z,1.67
2017-06-21T06:04:44.930Z,2.93
2017-06-21T06:10:14.421Z,4.20
2017-06-21T06:12:47.907Z,3.60
2017-06-21T06:18:18.850Z,3.60
2017-06-21T06:20:48.564Z,4.33
2017-06-21T06:23:18.468Z,2.20
2017-06-21T06:28:47.157Z,2.80
2017-06-21T06:31:16.021Z,3.70
2017-06-21T06:33:44.987Z,3.93
2017-06-21T06:36:33.578Z,3.77
2017-06-21T06:39:08.864Z,3.30
2017-06-21T06:41:37.622Z,2.40
2017-06-21T06:44:06.293Z,2.50
2017-06-21T06:46:34.842Z,2.70
2017-06-21T06:49:03.363Z,2.43
2017-06-21T06:51:31.843Z,2.40
2017-06-21T06:54:00.982Z,2.17
2017-06-21T06:56:29.417Z,2.03
2017-06-21T06:58:57.828Z,2.10
2017-06-21T07:01:26.203Z,1.90
2017-06-21T07:03:54.605Z,2.00
2017-06-21T07:06:30.691Z,2.47
2017-06-21T07:14:52.758Z,2.50
2017-06-21T07:17:24.078Z,2.20
2017-06-21T07:19:52.519Z,2.20
2017-06-21T07:22:20.999Z,2.20
2017-06-21T07:24:49.380Z,1.80
2017-06-21T07:27:17.873Z,2.70
2017-06-21T07:29:46.247Z,2.67
2017-06-21T07:32:14.632Z,2.93
2017-06-21T07:34:43.045Z,3.43
2017-06-21T07:37:11.394Z,2.30
2017-06-21T07:39:52.929Z,3.03
2017-06-21T07:42:21.232Z,2.57
2017-06-21T07:44:59.913Z,2.77
2017-06-21T07:47:28.349Z,2.07
2017-06-21T07:50:02.518Z,2.30
2017-06-21T07:55:25.035Z,2.80
2017-06-21T07:57:53.414Z,2.20
2017-06-21T08:00:21.815Z,2.40
2017-06-21T08:02:50.195Z,1.77
2017-06-21T08:05:18.588Z,3.13
2017-06-21T08:07:52.787Z,2.83
2017-06-21T08:10:27.993Z,2.90
2017-06-21T08:16:00.260Z,3.20
2017-06-21T08:18:28.590Z,3.30
2017-06-21T08:23:56.749Z,3.30
2017-06-21T08:26:31.528Z,2.97
2017-06-21T08:32:00.341Z,3.33
2017-06-21T08:34:28.724Z,3.60
2017-06-21T08:37:00.445Z,3.70
2017-06-21T08:39:34.813Z,3.70
2017-06-21T08:42:03.220Z,3.73
2017-06-21T08:44:31.577Z,4.27
2017-06-21T08:47:06.295Z,4.00
2017-06-21T08:49:36.315Z,5.87
2017-06-21T08:52:04.608Z,4.50
2017-06-21T08:54:56.873Z,3.77
2017-06-21T08:57:25.219Z,3.43
2017-06-21T08:59:56.575Z,3.13
2017-06-21T09:05:23.770Z,3.10
2017-06-21T09:07:52.134Z,4.00
2017-06-21T09:10:20.533Z,3.33
2017-06-21T09:12:56.676Z,2.87
2017-06-21T09:15:28.828Z,3.87
2017-06-21T09:18:05.372Z,4.17
2017-06-21T09:20:38.416Z,5.47
2017-06-21T09:23:06.797Z,7.10
2017-06-21T09:25:35.184Z,5.27
2017-06-21T09:28:03.563Z,4.70
2017-06-21T09:30:32.150Z,4.47
2017-06-21T09:33:01.348Z,3.73
2017-06-21T09:35:30.086Z,5.60
2017-06-21T09:37:58.663Z,5.20
2017-06-21T09:40:28.046Z,4.67
2017-06-21T09:42:57.406Z,5.10
2017-06-21T09:45:25.950Z,5.27
2017-06-21T09:47:54.545Z,4.67
2017-06-21T09:50:23.280Z,5.43
2017-06-21T09:52:51.911Z,5.00
2017-06-21T09:55:21.488Z,10.70
2017-06-21T09:57:49.998Z,4.93
2017-06-21T10:00:19.176Z,5.60
2017-06-21T10:02:48.080Z,4.13
2017-06-21T10:05:16.856Z,4.73
2017-06-21T10:07:45.435Z,3.87
2017-06-21T10:10:13.953Z,3.83
2017-06-21T10:12:43.507Z,3.57
2017-06-21T10:15:12.102Z,3.97
2017-06-21T10:17:40.920Z,3.63
2017-06-21T10:20:09.458Z,5.97
2017-06-21T10:22:51.582Z,4.00
2017-06-21T10:25:20.691Z,4.77
2017-06-21T10:27:49.456Z,4.30
2017-06-21T10:30:18.167Z,4.60
2017-06-21T10:32:46.818Z,4.27
2017-06-21T10:35:16.368Z,3.80
2017-06-21T10:37:44.842Z,4.57
2017-06-21T10:40:13.378Z,4.50
2017-06-21T10:42:42.082Z,3.80
2017-06-21T10:45:11.111Z,4.00
2017-06-21T10:47:39.692Z,3.90
2017-06-21T10:50:09.687Z,3.53
2017-06-21T10:52:38.369Z,4.50
2017-06-21T10:55:07.721Z,4.43
2017-06-21T10:57:36.153Z,3.53
2017-06-21T11:00:04.653Z,4.37
2017-06-21T11:02:33.219Z,4.60
2017-06-21T11:05:03.011Z,4.23
2017-06-21T11:07:31.549Z,5.00
2017-06-21T11:10:00.103Z,3.47
2017-06-21T11:12:28.668Z,4.10
2017-06-21T11:14:57.173Z,3.53
2017-06-21T11:17:26.296Z,3.30
2017-06-21T11:19:54.982Z,3.27
2017-06-21T11:22:23.571Z,4.37
2017-06-21T11:24:52.113Z,3.30
2017-06-21T11:27:21.574Z,3.60
2017-06-21T11:29:50.190Z,4.60
2017-06-21T11:32:18.910Z,3.43
2017-06-21T11:34:47.683Z,3.70
2017-06-21T11:37:16.302Z,3.77
2017-06-21T11:39:44.738Z,4.20
2017-06-21T11:42:13.330Z,3.53
2017-06-21T11:44:42.145Z,3.83
2017-06-21T11:47:10.530Z,4.00
2017-06-21T11:49:39.394Z,3.57
2017-06-21T11:52:07.963Z,3.57
2017-06-21T11:54:36.475Z,3.30
2017-06-21T11:57:06.463Z,5.40
2017-06-21T11:59:34.997Z,3.90
2017-06-21T12:02:03.458Z,4.77
2017-06-21T12:04:31.931Z,3.40
2017-06-21T12:07:00.448Z,4.00
2017-06-21T12:09:29.035Z,3.90
2017-06-21T12:11:57.666Z,4.47
2017-06-21T12:14:26.446Z,7.50
2017-06-21T12:16:54.957Z,3.70
2017-06-21T12:19:23.373Z,5.30
2017-06-21T12:21:51.701Z,4.70
2017-06-21T12:24:20.049Z,7.90
2017-06-21T12:26:48.401Z,3.50
2017-06-21T12:29:16.723Z,5.10
2017-06-21T12:31:45.018Z,4.90
2017-06-21T12:34:13.351Z,4.90
2017-06-21T12:36:41.659Z,4.50
2017-06-21T12:39:10.000Z,4.10
2017-06-21T12:41:38.308Z,4.03
2017-06-21T12:44:06.603Z,4.57
2017-06-21T12:46:34.962Z,4.17
2017-06-21T12:49:03.263Z,3.37
2017-06-21T12:51:31.555Z,4.07
2017-06-21T12:53:59.906Z,3.50
2017-06-21T12:56:28.213Z,3.50
2017-06-21T12:58:56.517Z,3.50
2017-06-21T13:01:24.872Z,3.80
2017-06-21T13:03:53.167Z,3.57
2017-06-21T13:06:21.468Z,3.80
2017-06-21T13:08:49.822Z,4.10
2017-06-21T13:11:18.124Z,3.20
2017-06-21T13:13:46.428Z,3.10
2017-06-21T13:16:14.767Z,3.67
2017-06-21T13:18:43.126Z,3.10
2017-06-21T13:21:11.479Z,2.83
2017-06-21T13:23:39.825Z,3.40
2017-06-21T13:26:08.154Z,2.63
2017-06-21T13:28:36.503Z,3.60
2017-06-21T13:31:04.831Z,3.30
2017-06-21T13:33:33.128Z,3.03
2017-06-21T13:36:01.472Z,4.33
2017-06-21T13:38:29.772Z,3.90
2017-06-21T13:40:58.088Z,3.30
2017-06-21T13:43:26.420Z,3.73
2017-06-21T13:45:54.786Z,3.80
2017-06-21T13:48:23.198Z,3.37
2017-06-21T13:50:51.539Z,3.33
2017-06-21T13:53:19.938Z,3.17
2017-06-21T13:55:48.343Z,3.10
2017-06-21T13:58:16.993Z,3.67
2017-06-21T14:00:45.320Z,3.30
2017-06-21T14:03:13.680Z,3.30
2017-06-21T14:05:41.991Z,3.63
2017-06-21T14:08:10.301Z,4.30
2017-06-21T14:10:38.670Z,4.07
2017-06-21T14:13:06.999Z,3.63
2017-06-21T14:15:35.308Z,3.47
2017-06-21T14:18:03.657Z,3.97
2017-06-21T14:20:31.961Z,4.00
2017-06-21T14:23:00.257Z,3.70
2017-06-21T14:25:28.690Z,4.50
2017-06-21T14:27:57.017Z,4.13
2017-06-21T14:30:26.125Z,4.50
2017-06-21T14:33:10.837Z,4.20
2017-06-21T14:35:39.225Z,3.67
2017-06-21T14:38:07.615Z,3.40
2017-06-21T14:40:36.004Z,3.63
2017-06-21T14:43:04.401Z,3.50
2017-06-21T14:45:32.693Z,3.83
2017-06-21T14:48:01.070Z,3.93
2017-06-21T14:50:29.380Z,3.40
2017-06-21T14:52:57.695Z,3.70
2017-06-21T14:55:26.032Z,3.20
2017-06-21T14:57:54.328Z,3.83
2017-06-21T15:00:22.635Z,3.87
2017-06-21T15:02:50.977Z,3.93
2017-06-21T15:05:19.288Z,3.70
2017-06-21T15:07:48.430Z,4.00
2017-06-21T15:10:16.769Z,3.97
2017-06-21T15:12:45.178Z,4.03
2017-06-21T15:15:13.564Z,3.70
2017-06-21T15:17:41.900Z,3.80
2017-06-21T15:20:11.204Z,4.70
2017-06-21T15:22:39.502Z,3.63
2017-06-21T15:25:07.808Z,3.77
2017-06-21T15:27:36.156Z,3.77
2017-06-21T15:30:04.456Z,3.37
2017-06-21T15:32:32.756Z,3.67
2017-06-21T15:35:01.113Z,3.53
2017-06-21T15:37:29.414Z,3.33
2017-06-21T15:39:57.713Z,3.80
2017-06-21T15:42:26.100Z,3.03
2017-06-21T15:44:54.424Z,2.63
2017-06-21T15:47:22.721Z,3.10
2017-06-21T15:49:51.152Z,2.93
2017-06-21T15:52:19.457Z,3.03
2017-06-21T15:54:47.752Z,3.13
2017-06-21T15:57:16.106Z,4.33
2017-06-21T15:59:44.463Z,3.70
2017-06-21T16:02:12.796Z,3.70
2017-06-21T16:04:41.162Z,3.20
2017-06-21T16:07:09.464Z,4.13
2017-06-21T16:09:37.781Z,3.20
2017-06-21T16:12:06.129Z,3.57
2017-06-21T16:14:34.447Z,3.27
2017-06-21T16:17:02.816Z,3.67
2017-06-21T16:19:31.129Z,3.30
2017-06-21T16:21:59.439Z,2.67
2017-06-21T16:24:27.785Z,3.37
2017-06-21T16:26:56.100Z,2.80
2017-06-21T16:29:24.571Z,3.60
2017-06-21T16:31:52.892Z,3.17
2017-06-21T16:34:21.192Z,3.17
2017-06-21T16:36:49.549Z,3.57
2017-06-21T16:39:17.863Z,3.20
2017-06-21T16:41:46.242Z,3.17
2017-06-21T16:44:14.619Z,2.70
2017-06-21T16:46:43.045Z,2.93
2017-06-21T16:49:11.557Z,3.40
2017-06-21T16:51:40.122Z,4.00
2017-06-21T16:54:09.199Z,4.13
2017-06-21T16:56:37.719Z,3.67
2017-06-21T16:59:06.188Z,3.80
2017-06-21T17:01:34.728Z,4.50
2017-06-21T17:04:03.272Z,3.50
2017-06-21T17:06:32.043Z,3.03
2017-06-21T17:09:00.930Z,3.10
2017-06-21T17:11:30.365Z,3.37
2017-06-21T17:13:59.014Z,3.60
2017-06-21T17:16:27.796Z,4.27
2017-06-21T17:18:56.589Z,3.20
2017-06-21T17:21:25.164Z,2.60
2017-06-21T17:23:53.795Z,3.63
2017-06-21T17:26:22.284Z,3.43
2017-06-21T17:28:50.952Z,3.63
2017-06-21T17:31:19.661Z,4.00
2017-06-21T17:33:48.197Z,3.47
2017-06-21T17:36:16.768Z,3.67
2017-06-21T17:38:46.108Z,3.60
2017-06-21T17:41:14.981Z,2.87
2017-06-21T17:43:44.462Z,3.67
2017-06-21T17:46:13.134Z,4.07
2017-06-21T17:48:41.704Z,3.10
2017-06-21T17:51:10.237Z,3.40
2017-06-21T17:53:38.906Z,4.03
2017-06-21T17:56:07.503Z,3.63
2017-06-21T17:58:36.183Z,3.57
2017-06-21T18:01:04.557Z,3.40
2017-06-21T18:03:33.005Z,3.80
2017-06-21T18:06:01.727Z,2.90
2017-06-21T18:08:30.711Z,4.47
2017-06-21T18:10:59.418Z,4.17
2017-06-21T18:13:28.003Z,4.10
2017-06-21T18:15:56.452Z,4.00
2017-06-21T18:18:25.021Z,4.20
2017-06-21T18:20:53.579Z,3.73
2017-06-21T18:23:22.026Z,3.90
2017-06-21T18:25:50.528Z,4.50
2017-06-21T18:28:19.190Z,3.93
2017-06-21T18:30:47.973Z,4.10
2017-06-21T18:33:17.774Z,3.50
2017-06-21T18:35:46.429Z,4.30
2017-06-21T18:38:15.092Z,4.53
2017-06-21T18:40:43.894Z,3.30
2017-06-21T18:43:12.703Z,4.37
2017-06-21T18:45:41.228Z,4.17
2017-06-21T18:48:09.836Z,4.60
2017-06-21T18:50:38.514Z,5.10
2017-06-21T18:53:07.259Z,4.73
2017-06-21T18:55:40.168Z,4.80
2017-06-21T18:58:09.049Z,4.50
2017-06-21T19:00:37.588Z,5.10
2017-06-21T19:03:06.156Z,4.53
2017-06-21T19:05:34.899Z,5.20
2017-06-21T19:08:03.358Z,4.50
2017-06-21T19:10:31.841Z,4.87
2017-06-21T19:13:00.380Z,4.37
2017-06-21T19:15:29.003Z,5.07
2017-06-21T19:17:57.465Z,5.10
2017-06-21T19:20:26.159Z,5.37
2017-06-21T19:22:54.641Z,5.77
2017-06-21T19:25:22.969Z,5.07
2017-06-21T19:27:51.272Z,5.90
2017-06-21T19:30:19.728Z,5.10
2017-06-21T19:32:48.060Z,7.20
2017-06-21T19:35:16.608Z,6.07
2017-06-21T19:37:45.076Z,5.13
2017-06-21T19:40:13.391Z,5.47
2017-06-21T19:42:41.692Z,5.93
2017-06-21T19:45:10.032Z,5.97
2017-06-21T19:47:38.328Z,5.50
2017-06-21T19:50:06.708Z,5.60
2017-06-21T19:52:35.321Z,6.13
2017-06-21T19:55:03.771Z,5.07
2017-06-21T19:57:32.332Z,4.80
2017-06-21T20:00:00.629Z,5.63
2017-06-21T20:02:28.936Z,5.80
2017-06-21T20:04:57.377Z,6.30
2017-06-21T20:07:25.734Z,5.90
2017-06-21T20:09:54.057Z,5.67
2017-06-21T20:12:22.725Z,6.43
2017-06-21T20:14:51.040Z,5.30
2017-06-21T20:17:19.355Z,5.90
2017-06-21T20:19:47.812Z,6.00
2017-06-21T20:22:16.178Z,5.70
2017-06-21T20:24:44.610Z,5.67
2017-06-21T20:27:13.031Z,7.00
2017-06-21T20:29:44.690Z,7.07
2017-06-21T20:32:13.061Z,6.13
2017-06-21T20:34:41.416Z,6.40
2017-06-21T20:37:11.137Z,7.40
2017-06-21T20:39:39.518Z,6.60
2017-06-21T20:42:07.923Z,6.20
2017-06-21T20:44:36.299Z,6.20
2017-06-21T20:47:04.729Z,5.73
2017-06-21T20:49:33.133Z,6.67
2017-06-21T20:52:01.499Z,6.50
2017-06-21T20:54:29.890Z,7.10
2017-06-21T20:57:02.290Z,7.03
2017-06-21T20:59:31.434Z,6.60
2017-06-21T21:01:59.833Z,7.33
2017-06-21T21:04:28.227Z,6.67
2017-06-21T21:06:57.518Z,7.53
2017-06-21T21:09:26.597Z,8.07
2017-06-21T21:11:55.130Z,8.07
2017-06-21T21:14:24.356Z,7.40
2017-06-21T21:16:52.710Z,7.37
2017-06-21T21:19:22.660Z,8.07
2017-06-21T21:21:51.085Z,7.40
2017-06-21T21:24:20.362Z,7.67
2017-06-21T21:26:49.742Z,6.97
2017-06-21T21:29:18.143Z,7.87
2017-06-21T21:31:46.502Z,7.73
2017-06-21T21:34:14.897Z,7.90
2017-06-21T21:36:43.371Z,7.93
2017-06-21T21:39:12.180Z,6.57
2017-06-21T21:41:40.611Z,7.87
2017-06-21T21:44:09.031Z,7.30
2017-06-21T21:46:40.430Z,8.00
2017-06-21T21:49:08.860Z,7.90
2017-06-21T21:51:37.315Z,8.47
2017-06-21T21:54:05.677Z,8.30
2017-06-21T21:56:34.378Z,9.20
2017-06-21T21:59:02.832Z,8.30
2017-06-21T22:01:31.197Z,9.10
2017-06-21T22:03:59.606Z,8.50
2017-06-21T22:06:28.022Z,8.30
2017-06-21T22:08:56.385Z,8.17
2017-06-21T22:11:24.824Z,8.80
2017-06-21T22:13:53.259Z,8.50
2017-06-21T22:22:54.797Z,8.63
2017-06-21T22:25:23.100Z,9.60
2017-06-21T22:27:51.411Z,9.90
2017-06-21T22:30:19.852Z,8.13
2017-06-21T22:32:48.184Z,8.90
2017-06-21T22:35:16.513Z,8.60
2017-06-21T22:37:44.880Z,8.50
2017-06-21T22:40:13.198Z,9.90
2017-06-21T22:42:41.582Z,9.00
2017-06-21T22:45:09.912Z,9.30
2017-06-21T22:47:38.236Z,9.33
2017-06-21T22:50:06.592Z,9.70
2017-06-21T22:52:34.907Z,9.77
2017-06-21T22:55:03.240Z,9.87
2017-06-21T22:57:31.723Z,9.37
2017-06-21T23:00:00.031Z,10.63
2017-06-21T23:02:28.347Z,9.50
2017-06-21T23:04:56.710Z,9.10
2017-06-21T23:07:25.011Z,9.27
2017-06-21T23:09:53.398Z,11.10
2017-06-21T23:12:21.786Z,10.93
2017-06-21T23:14:50.090Z,9.33
2017-06-21T23:17:18.564Z,9.60
2017-06-21T23:19:46.869Z,9.13
2017-06-21T23:22:15.202Z,9.67
2017-06-21T23:24:43.589Z,10.47
2017-06-21T23:27:11.886Z,9.33
2017-06-21T23:29:40.192Z,10.47
2017-06-21T23:32:08.570Z,9.70
2017-06-21T23:34:36.879Z,10.43
2017-06-21T23:37:05.183Z,10.97
2017-06-21T23:39:33.531Z,9.50
2017-06-21T23:42:01.881Z,10.80
2017-06-21T23:44:30.202Z,10.90
2017-06-21T23:46:58.564Z,11.00
2017-06-21T23:49:26.892Z,9.97
2017-06-21T23:51:55.219Z,10.77
2017-06-21T23:54:23.567Z,10.40
2017-06-21T23:56:51.882Z,11.00
2017-06-21T23:59:20.193Z,10.47
